sensor_id;sensor_type;location;lat;lon;timestamp;P1;durP1;ratioP1;P2;durP2;ratioP2
54430;SDS011;40342;52.998;5.862;2022-10-31T00:00:59;12.68;;;7.80;;
54430;SDS011;40342;52.998;5.862;2022-10-31T00:03:25;15.05;;;7.82;;
54430;SDS011;40342;52.998;5.862;2022-10-31T00:05:51;13.15;;;7.25;;
54430;SDS011;40342;52.998;5.862;2022-10-31T00:08:17;10.13;;;6.90;;
54430;SDS011;40342;52.998;5.862;2022-10-31T00:10:43;11.30;;;6.88;;
54430;SDS011;40342;52.998;5.862;2022-10-31T00:13:10;13.43;;;7.55;;
54430;SDS011;40342;52.998;5.862;2022-10-31T00:15:37;9.35;;;6.22;;
54430;SDS011;40342;52.998;5.862;2022-10-31T00:18:04;11.55;;;5.65;;
54430;SDS011;40342;52.998;5.862;2022-10-31T00:20:31;16.38;;;6.93;;
54430;SDS011;40342;52.998;5.862;2022-10-31T00:23:00;9.70;;;5.90;;
54430;SDS011;40342;52.998;5.862;2022-10-31T00:25:28;9.25;;;5.97;;
54430;SDS011;40342;52.998;5.862;2022-10-31T00:27:57;10.32;;;5.97;;
54430;SDS011;40342;52.998;5.862;2022-10-31T00:30:23;10.52;;;6.38;;
54430;SDS011;40342;52.998;5.862;2022-10-31T00:32:48;10.93;;;6.57;;
54430;SDS011;40342;52.998;5.862;2022-10-31T00:35:14;17.20;;;7.25;;
54430;SDS011;40342;52.998;5.862;2022-10-31T00:37:40;12.20;;;5.85;;
54430;SDS011;40342;52.998;5.862;2022-10-31T00:40:05;14.43;;;6.70;;
54430;SDS011;40342;52.998;5.862;2022-10-31T00:42:31;10.82;;;6.95;;
54430;SDS011;40342;52.998;5.862;2022-10-31T00:44:57;10.82;;;6.63;;
54430;SDS011;40342;52.998;5.862;2022-10-31T00:47:22;10.52;;;6.70;;
54430;SDS011;40342;52.998;5.862;2022-10-31T00:49:48;17.02;;;6.88;;
54430;SDS011;40342;52.998;5.862;2022-10-31T00:52:13;11.88;;;7.45;;
54430;SDS011;40342;52.998;5.862;2022-10-31T00:54:39;10.35;;;6.55;;
54430;SDS011;40342;52.998;5.862;2022-10-31T00:57:04;11.18;;;7.32;;
54430;SDS011;40342;52.998;5.862;2022-10-31T00:59:30;11.27;;;7.57;;
54430;SDS011;40342;52.998;5.862;2022-10-31T01:01:55;10.20;;;8.15;;
54430;SDS011;40342;52.998;5.862;2022-10-31T01:04:21;10.32;;;7.35;;
54430;SDS011;40342;52.998;5.862;2022-10-31T01:06:47;13.88;;;7.72;;
54430;SDS011;40342;52.998;5.862;2022-10-31T01:09:12;11.10;;;7.93;;
54430;SDS011;40342;52.998;5.862;2022-10-31T01:11:38;13.25;;;7.97;;
54430;SDS011;40342;52.998;5.862;2022-10-31T01:14:03;11.85;;;8.27;;
54430;SDS011;40342;52.998;5.862;2022-10-31T01:16:29;14.65;;;8.68;;
54430;SDS011;40342;52.998;5.862;2022-10-31T01:18:55;12.18;;;8.38;;
54430;SDS011;40342;52.998;5.862;2022-10-31T01:21:25;13.43;;;8.55;;
54430;SDS011;40342;52.998;5.862;2022-10-31T01:23:53;12.27;;;8.25;;
54430;SDS011;40342;52.998;5.862;2022-10-31T01:26:26;17.05;;;8.57;;
54430;SDS011;40342;52.998;5.862;2022-10-31T01:28:54;11.93;;;8.07;;
54430;SDS011;40342;52.998;5.862;2022-10-31T01:31:25;13.80;;;8.93;;
54430;SDS011;40342;52.998;5.862;2022-10-31T01:33:53;13.13;;;8.73;;
54430;SDS011;40342;52.998;5.862;2022-10-31T01:36:29;11.27;;;9.43;;
54430;SDS011;40342;52.998;5.862;2022-10-31T01:38:57;17.92;;;9.93;;
54430;SDS011;40342;52.998;5.862;2022-10-31T01:41:26;16.10;;;9.88;;
54430;SDS011;40342;52.998;5.862;2022-10-31T01:43:54;16.08;;;9.48;;
54430;SDS011;40342;52.998;5.862;2022-10-31T01:46:22;14.55;;;9.43;;
54430;SDS011;40342;52.998;5.862;2022-10-31T01:48:58;11.13;;;9.73;;
54430;SDS011;40342;52.998;5.862;2022-10-31T01:51:28;13.93;;;9.70;;
54430;SDS011;40342;52.998;5.862;2022-10-31T01:54:00;15.93;;;10.18;;
54430;SDS011;40342;52.998;5.862;2022-10-31T01:56:30;12.80;;;10.23;;
54430;SDS011;40342;52.998;5.862;2022-10-31T01:58:58;13.55;;;10.23;;
54430;SDS011;40342;52.998;5.862;2022-10-31T02:01:26;14.73;;;10.43;;
54430;SDS011;40342;52.998;5.862;2022-10-31T02:03:53;13.90;;;10.73;;
54430;SDS011;40342;52.998;5.862;2022-10-31T02:06:29;11.80;;;9.95;;
54430;SDS011;40342;52.998;5.862;2022-10-31T02:09:00;13.60;;;9.95;;
54430;SDS011;40342;52.998;5.862;2022-10-31T02:11:28;13.50;;;9.77;;
54430;SDS011;40342;52.998;5.862;2022-10-31T02:13:55;15.35;;;10.82;;
54430;SDS011;40342;52.998;5.862;2022-10-31T02:16:21;14.48;;;10.30;;
54430;SDS011;40342;52.998;5.862;2022-10-31T02:18:46;12.57;;;10.35;;
54430;SDS011;40342;52.998;5.862;2022-10-31T02:24:08;15.00;;;10.00;;
54430;SDS011;40342;52.998;5.862;2022-10-31T02:29:33;13.13;;;9.80;;
54430;SDS011;40342;52.998;5.862;2022-10-31T02:32:18;14.02;;;10.50;;
54430;SDS011;40342;52.998;5.862;2022-10-31T02:41:01;12.18;;;10.02;;
54430;SDS011;40342;52.998;5.862;2022-10-31T02:46:50;16.73;;;10.65;;
54430;SDS011;40342;52.998;5.862;2022-10-31T02:49:39;16.10;;;10.32;;
54430;SDS011;40342;52.998;5.862;2022-10-31T02:52:23;14.07;;;9.88;;
54430;SDS011;40342;52.998;5.862;2022-10-31T02:54:51;13.27;;;10.35;;
54430;SDS011;40342;52.998;5.862;2022-10-31T02:57:18;11.68;;;10.55;;
54430;SDS011;40342;52.998;5.862;2022-10-31T02:59:48;11.95;;;9.77;;
54430;SDS011;40342;52.998;5.862;2022-10-31T03:02:22;15.63;;;10.05;;
54430;SDS011;40342;52.998;5.862;2022-10-31T03:04:56;14.35;;;9.98;;
54430;SDS011;40342;52.998;5.862;2022-10-31T03:07:37;14.30;;;9.90;;
54430;SDS011;40342;52.998;5.862;2022-10-31T03:15:40;15.27;;;10.40;;
54430;SDS011;40342;52.998;5.862;2022-10-31T03:21:20;12.82;;;9.68;;
54430;SDS011;40342;52.998;5.862;2022-10-31T03:23:25;16.13;;;10.95;;
54430;SDS011;40342;52.998;5.862;2022-10-31T03:25:52;13.93;;;10.55;;
54430;SDS011;40342;52.998;5.862;2022-10-31T03:28:21;11.48;;;10.20;;
54430;SDS011;40342;52.998;5.862;2022-10-31T03:30:50;13.38;;;9.88;;
54430;SDS011;40342;52.998;5.862;2022-10-31T03:33:17;14.05;;;10.70;;
54430;SDS011;40342;52.998;5.862;2022-10-31T03:35:50;13.57;;;11.20;;
54430;SDS011;40342;52.998;5.862;2022-10-31T03:38:17;13.80;;;10.80;;
54430;SDS011;40342;52.998;5.862;2022-10-31T03:40:45;18.75;;;10.55;;
54430;SDS011;40342;52.998;5.862;2022-10-31T03:43:16;15.95;;;11.15;;
54430;SDS011;40342;52.998;5.862;2022-10-31T03:45:47;15.75;;;10.40;;
54430;SDS011;40342;52.998;5.862;2022-10-31T03:48:13;16.38;;;10.57;;
54430;SDS011;40342;52.998;5.862;2022-10-31T03:50:58;13.73;;;10.63;;
54430;SDS011;40342;52.998;5.862;2022-10-31T03:53:33;14.10;;;10.10;;
54430;SDS011;40342;52.998;5.862;2022-10-31T03:56:09;13.48;;;10.30;;
54430;SDS011;40342;52.998;5.862;2022-10-31T03:58:56;16.58;;;11.15;;
54430;SDS011;40342;52.998;5.862;2022-10-31T04:01:29;16.35;;;11.57;;
54430;SDS011;40342;52.998;5.862;2022-10-31T04:03:58;15.13;;;11.23;;
54430;SDS011;40342;52.998;5.862;2022-10-31T04:06:25;13.35;;;10.55;;
54430;SDS011;40342;52.998;5.862;2022-10-31T04:08:52;15.85;;;10.77;;
54430;SDS011;40342;52.998;5.862;2022-10-31T04:11:23;13.20;;;11.25;;
54430;SDS011;40342;52.998;5.862;2022-10-31T04:13:52;17.85;;;11.52;;
54430;SDS011;40342;52.998;5.862;2022-10-31T04:16:19;18.48;;;11.52;;
54430;SDS011;40342;52.998;5.862;2022-10-31T04:18:47;13.00;;;11.63;;
54430;SDS011;40342;52.998;5.862;2022-10-31T04:21:12;14.70;;;11.80;;
54430;SDS011;40342;52.998;5.862;2022-10-31T04:23:38;15.68;;;11.35;;
54430;SDS011;40342;52.998;5.862;2022-10-31T04:26:04;14.85;;;11.52;;
54430;SDS011;40342;52.998;5.862;2022-10-31T04:28:29;14.57;;;11.68;;
54430;SDS011;40342;52.998;5.862;2022-10-31T04:30:55;13.45;;;11.80;;
54430;SDS011;40342;52.998;5.862;2022-10-31T04:33:20;14.25;;;11.65;;
54430;SDS011;40342;52.998;5.862;2022-10-31T04:35:46;14.20;;;11.48;;
54430;SDS011;40342;52.998;5.862;2022-10-31T04:38:12;17.88;;;11.73;;
54430;SDS011;40342;52.998;5.862;2022-10-31T04:40:37;14.77;;;10.93;;
54430;SDS011;40342;52.998;5.862;2022-10-31T04:43:03;14.88;;;11.32;;
54430;SDS011;40342;52.998;5.862;2022-10-31T04:45:29;12.30;;;10.85;;
54430;SDS011;40342;52.998;5.862;2022-10-31T04:47:54;15.00;;;11.77;;
54430;SDS011;40342;52.998;5.862;2022-10-31T04:50:20;14.68;;;11.05;;
54430;SDS011;40342;52.998;5.862;2022-10-31T04:52:45;15.25;;;11.25;;
54430;SDS011;40342;52.998;5.862;2022-10-31T04:55:11;13.20;;;11.27;;
54430;SDS011;40342;52.998;5.862;2022-10-31T04:57:45;15.07;;;11.52;;
54430;SDS011;40342;52.998;5.862;2022-10-31T05:00:13;12.13;;;10.65;;
54430;SDS011;40342;52.998;5.862;2022-10-31T05:02:46;12.30;;;10.85;;
54430;SDS011;40342;52.998;5.862;2022-10-31T05:05:14;11.93;;;10.73;;
54430;SDS011;40342;52.998;5.862;2022-10-31T05:07:41;11.10;;;10.00;;
54430;SDS011;40342;52.998;5.862;2022-10-31T05:10:08;11.70;;;10.38;;
54430;SDS011;40342;52.998;5.862;2022-10-31T05:12:35;12.73;;;10.73;;
54430;SDS011;40342;52.998;5.862;2022-10-31T05:15:01;16.33;;;11.13;;
54430;SDS011;40342;52.998;5.862;2022-10-31T05:17:27;15.60;;;11.02;;
54430;SDS011;40342;52.998;5.862;2022-10-31T05:19:52;16.55;;;10.75;;
54430;SDS011;40342;52.998;5.862;2022-10-31T05:22:18;13.60;;;10.45;;
54430;SDS011;40342;52.998;5.862;2022-10-31T05:24:43;13.07;;;10.88;;
54430;SDS011;40342;52.998;5.862;2022-10-31T05:27:09;11.55;;;10.35;;
54430;SDS011;40342;52.998;5.862;2022-10-31T05:29:34;13.88;;;11.75;;
54430;SDS011;40342;52.998;5.862;2022-10-31T05:32:00;14.45;;;11.35;;
54430;SDS011;40342;52.998;5.862;2022-10-31T05:34:26;13.07;;;11.38;;
54430;SDS011;40342;52.998;5.862;2022-10-31T05:36:51;18.25;;;11.77;;
54430;SDS011;40342;52.998;5.862;2022-10-31T05:39:17;14.25;;;11.98;;
54430;SDS011;40342;52.998;5.862;2022-10-31T05:41:42;15.02;;;11.13;;
54430;SDS011;40342;52.998;5.862;2022-10-31T05:44:08;15.93;;;10.50;;
54430;SDS011;40342;52.998;5.862;2022-10-31T05:46:33;13.23;;;11.05;;
54430;SDS011;40342;52.998;5.862;2022-10-31T05:48:59;16.73;;;11.65;;
54430;SDS011;40342;52.998;5.862;2022-10-31T05:51:24;15.95;;;12.18;;
54430;SDS011;40342;52.998;5.862;2022-10-31T05:53:50;14.30;;;11.65;;
54430;SDS011;40342;52.998;5.862;2022-10-31T05:56:16;13.90;;;11.20;;
54430;SDS011;40342;52.998;5.862;2022-10-31T05:58:41;14.00;;;11.68;;
54430;SDS011;40342;52.998;5.862;2022-10-31T06:01:07;13.93;;;12.43;;
54430;SDS011;40342;52.998;5.862;2022-10-31T06:03:32;16.23;;;12.63;;
54430;SDS011;40342;52.998;5.862;2022-10-31T06:05:58;12.07;;;10.85;;
54430;SDS011;40342;52.998;5.862;2022-10-31T06:08:23;15.90;;;12.15;;
54430;SDS011;40342;52.998;5.862;2022-10-31T06:10:49;15.57;;;12.55;;
54430;SDS011;40342;52.998;5.862;2022-10-31T06:13:14;23.55;;;12.35;;
54430;SDS011;40342;52.998;5.862;2022-10-31T06:15:41;15.30;;;12.68;;
54430;SDS011;40342;52.998;5.862;2022-10-31T06:18:07;15.98;;;12.55;;
54430;SDS011;40342;52.998;5.862;2022-10-31T06:20:33;17.15;;;12.20;;
54430;SDS011;40342;52.998;5.862;2022-10-31T06:23:00;18.02;;;13.30;;
54430;SDS011;40342;52.998;5.862;2022-10-31T06:25:26;15.40;;;13.07;;
54430;SDS011;40342;52.998;5.862;2022-10-31T06:27:52;16.05;;;12.25;;
54430;SDS011;40342;52.998;5.862;2022-10-31T06:30:17;15.60;;;12.52;;
54430;SDS011;40342;52.998;5.862;2022-10-31T06:32:43;13.65;;;12.25;;
54430;SDS011;40342;52.998;5.862;2022-10-31T06:35:09;14.00;;;12.48;;
54430;SDS011;40342;52.998;5.862;2022-10-31T06:37:34;16.75;;;13.30;;
54430;SDS011;40342;52.998;5.862;2022-10-31T06:40:00;18.77;;;12.48;;
54430;SDS011;40342;52.998;5.862;2022-10-31T06:42:26;13.25;;;11.95;;
54430;SDS011;40342;52.998;5.862;2022-10-31T06:44:51;16.02;;;12.43;;
54430;SDS011;40342;52.998;5.862;2022-10-31T06:47:17;13.40;;;12.00;;
54430;SDS011;40342;52.998;5.862;2022-10-31T06:49:42;17.98;;;12.88;;
54430;SDS011;40342;52.998;5.862;2022-10-31T06:52:08;15.57;;;12.48;;
54430;SDS011;40342;52.998;5.862;2022-10-31T06:54:33;15.27;;;12.35;;
54430;SDS011;40342;52.998;5.862;2022-10-31T06:56:59;17.98;;;13.68;;
54430;SDS011;40342;52.998;5.862;2022-10-31T06:59:24;37.63;;;34.35;;
54430;SDS011;40342;52.998;5.862;2022-10-31T07:01:50;21.65;;;14.70;;
54430;SDS011;40342;52.998;5.862;2022-10-31T07:04:16;15.75;;;13.45;;
54430;SDS011;40342;52.998;5.862;2022-10-31T07:06:41;15.77;;;14.05;;
54430;SDS011;40342;52.998;5.862;2022-10-31T07:09:07;15.70;;;13.45;;
54430;SDS011;40342;52.998;5.862;2022-10-31T07:11:32;15.38;;;13.82;;
54430;SDS011;40342;52.998;5.862;2022-10-31T07:13:58;16.58;;;13.70;;
54430;SDS011;40342;52.998;5.862;2022-10-31T07:16:24;17.20;;;13.60;;
54430;SDS011;40342;52.998;5.862;2022-10-31T07:18:49;15.82;;;14.13;;
54430;SDS011;40342;52.998;5.862;2022-10-31T07:21:15;16.67;;;15.02;;
54430;SDS011;40342;52.998;5.862;2022-10-31T07:23:40;17.38;;;14.90;;
54430;SDS011;40342;52.998;5.862;2022-10-31T07:26:07;17.10;;;14.52;;
54430;SDS011;40342;52.998;5.862;2022-10-31T07:28:34;16.60;;;14.80;;
54430;SDS011;40342;52.998;5.862;2022-10-31T07:30:59;17.15;;;14.50;;
54430;SDS011;40342;52.998;5.862;2022-10-31T07:33:25;19.85;;;14.93;;
54430;SDS011;40342;52.998;5.862;2022-10-31T07:35:51;18.75;;;15.40;;
54430;SDS011;40342;52.998;5.862;2022-10-31T07:38:17;19.13;;;14.95;;
54430;SDS011;40342;52.998;5.862;2022-10-31T07:40:43;18.02;;;15.30;;
54430;SDS011;40342;52.998;5.862;2022-10-31T07:43:12;17.63;;;15.43;;
54430;SDS011;40342;52.998;5.862;2022-10-31T07:45:37;16.55;;;14.82;;
54430;SDS011;40342;52.998;5.862;2022-10-31T07:48:03;18.02;;;15.35;;
54430;SDS011;40342;52.998;5.862;2022-10-31T07:50:29;18.73;;;14.82;;
54430;SDS011;40342;52.998;5.862;2022-10-31T07:55:35;17.63;;;15.52;;
54430;SDS011;40342;52.998;5.862;2022-10-31T07:58:19;18.95;;;15.63;;
54430;SDS011;40342;52.998;5.862;2022-10-31T08:00:45;18.50;;;16.02;;
54430;SDS011;40342;52.998;5.862;2022-10-31T08:03:15;17.20;;;15.35;;
54430;SDS011;40342;52.998;5.862;2022-10-31T08:05:42;20.45;;;15.63;;
54430;SDS011;40342;52.998;5.862;2022-10-31T08:08:11;17.67;;;14.32;;
54430;SDS011;40342;52.998;5.862;2022-10-31T08:10:37;15.93;;;14.05;;
54430;SDS011;40342;52.998;5.862;2022-10-31T08:13:13;17.45;;;15.65;;
54430;SDS011;40342;52.998;5.862;2022-10-31T08:15:39;17.38;;;13.82;;
54430;SDS011;40342;52.998;5.862;2022-10-31T08:18:09;16.55;;;14.95;;
54430;SDS011;40342;52.998;5.862;2022-10-31T08:20:37;17.90;;;15.20;;
54430;SDS011;40342;52.998;5.862;2022-10-31T08:23:03;16.95;;;14.80;;
54430;SDS011;40342;52.998;5.862;2022-10-31T08:25:30;20.00;;;15.13;;
54430;SDS011;40342;52.998;5.862;2022-10-31T08:27:57;19.77;;;15.27;;
54430;SDS011;40342;52.998;5.862;2022-10-31T08:30:25;16.92;;;15.25;;
54430;SDS011;40342;52.998;5.862;2022-10-31T08:33:12;22.63;;;15.85;;
54430;SDS011;40342;52.998;5.862;2022-10-31T08:35:39;20.05;;;15.68;;
54430;SDS011;40342;52.998;5.862;2022-10-31T08:38:05;18.92;;;16.63;;
54430;SDS011;40342;52.998;5.862;2022-10-31T08:40:32;18.65;;;15.75;;
54430;SDS011;40342;52.998;5.862;2022-10-31T08:42:59;20.05;;;15.80;;
54430;SDS011;40342;52.998;5.862;2022-10-31T08:45:25;16.65;;;14.82;;
54430;SDS011;40342;52.998;5.862;2022-10-31T08:47:51;19.15;;;16.35;;
54430;SDS011;40342;52.998;5.862;2022-10-31T08:50:17;19.23;;;16.00;;
54430;SDS011;40342;52.998;5.862;2022-10-31T08:52:43;19.13;;;14.35;;
54430;SDS011;40342;52.998;5.862;2022-10-31T08:55:09;20.65;;;16.02;;
54430;SDS011;40342;52.998;5.862;2022-10-31T08:57:34;18.98;;;15.80;;
54430;SDS011;40342;52.998;5.862;2022-10-31T09:00:00;20.20;;;16.05;;
54430;SDS011;40342;52.998;5.862;2022-10-31T09:02:25;22.08;;;16.25;;
54430;SDS011;40342;52.998;5.862;2022-10-31T09:04:51;17.70;;;15.80;;
54430;SDS011;40342;52.998;5.862;2022-10-31T09:07:16;21.55;;;16.55;;
54430;SDS011;40342;52.998;5.862;2022-10-31T09:09:42;18.70;;;15.85;;
54430;SDS011;40342;52.998;5.862;2022-10-31T09:12:07;20.92;;;17.20;;
54430;SDS011;40342;52.998;5.862;2022-10-31T09:14:33;22.40;;;17.08;;
54430;SDS011;40342;52.998;5.862;2022-10-31T09:16:59;21.27;;;16.77;;
54430;SDS011;40342;52.998;5.862;2022-10-31T09:19:24;21.92;;;17.08;;
54430;SDS011;40342;52.998;5.862;2022-10-31T09:21:53;21.35;;;16.60;;
54430;SDS011;40342;52.998;5.862;2022-10-31T09:24:19;21.90;;;17.35;;
54430;SDS011;40342;52.998;5.862;2022-10-31T09:26:45;25.90;;;18.48;;
54430;SDS011;40342;52.998;5.862;2022-10-31T09:29:10;24.23;;;18.00;;
54430;SDS011;40342;52.998;5.862;2022-10-31T09:31:36;24.95;;;19.40;;
54430;SDS011;40342;52.998;5.862;2022-10-31T09:34:01;23.52;;;17.85;;
54430;SDS011;40342;52.998;5.862;2022-10-31T09:36:27;19.90;;;16.85;;
54430;SDS011;40342;52.998;5.862;2022-10-31T09:38:52;20.52;;;15.20;;
54430;SDS011;40342;52.998;5.862;2022-10-31T09:44:01;18.92;;;15.00;;
54430;SDS011;40342;52.998;5.862;2022-10-31T09:52:35;15.38;;;13.77;;
54430;SDS011;40342;52.998;5.862;2022-10-31T09:55:16;15.23;;;13.02;;
54430;SDS011;40342;52.998;5.862;2022-10-31T09:57:48;17.88;;;13.98;;
54430;SDS011;40342;52.998;5.862;2022-10-31T10:00:16;16.00;;;13.88;;
54430;SDS011;40342;52.998;5.862;2022-10-31T10:02:46;17.73;;;13.43;;
54430;SDS011;40342;52.998;5.862;2022-10-31T10:05:19;19.48;;;13.75;;
54430;SDS011;40342;52.998;5.862;2022-10-31T10:08:03;16.00;;;13.27;;
54430;SDS011;40342;52.998;5.862;2022-10-31T10:10:51;15.55;;;12.57;;
54430;SDS011;40342;52.998;5.862;2022-10-31T10:19:04;13.63;;;11.20;;
54430;SDS011;40342;52.998;5.862;2022-10-31T10:21:45;13.13;;;10.20;;
54430;SDS011;40342;52.998;5.862;2022-10-31T10:24:33;13.57;;;10.88;;
54430;SDS011;40342;52.998;5.862;2022-10-31T10:27:09;11.52;;;10.10;;
54430;SDS011;40342;52.998;5.862;2022-10-31T10:30:02;14.35;;;11.30;;
54430;SDS011;40342;52.998;5.862;2022-10-31T10:32:30;14.05;;;11.02;;
54430;SDS011;40342;52.998;5.862;2022-10-31T10:35:09;14.02;;;11.25;;
54430;SDS011;40342;52.998;5.862;2022-10-31T10:37:44;16.75;;;11.57;;
54430;SDS011;40342;52.998;5.862;2022-10-31T10:45:54;13.35;;;11.98;;
54430;SDS011;40342;52.998;5.862;2022-10-31T10:48:51;14.45;;;11.38;;
54430;SDS011;40342;52.998;5.862;2022-10-31T10:51:40;12.95;;;11.27;;
54430;SDS011;40342;52.998;5.862;2022-10-31T10:57:18;13.13;;;11.75;;
54430;SDS011;40342;52.998;5.862;2022-10-31T10:59:51;14.25;;;12.48;;
54430;SDS011;40342;52.998;5.862;2022-10-31T11:02:18;16.02;;;12.85;;
54430;SDS011;40342;52.998;5.862;2022-10-31T11:04:52;16.48;;;12.68;;
54430;SDS011;40342;52.998;5.862;2022-10-31T11:07:21;16.77;;;12.50;;
54430;SDS011;40342;52.998;5.862;2022-10-31T11:09:47;16.73;;;14.00;;
54430;SDS011;40342;52.998;5.862;2022-10-31T11:12:20;19.42;;;14.65;;
54430;SDS011;40342;52.998;5.862;2022-10-31T11:14:51;16.23;;;13.63;;
54430;SDS011;40342;52.998;5.862;2022-10-31T11:17:31;16.33;;;14.23;;
54430;SDS011;40342;52.998;5.862;2022-10-31T11:20:00;19.45;;;15.02;;
54430;SDS011;40342;52.998;5.862;2022-10-31T11:22:30;19.25;;;14.15;;
54430;SDS011;40342;52.998;5.862;2022-10-31T11:24:55;18.63;;;15.07;;
54430;SDS011;40342;52.998;5.862;2022-10-31T11:27:22;20.05;;;14.77;;
54430;SDS011;40342;52.998;5.862;2022-10-31T11:29:49;18.90;;;14.85;;
54430;SDS011;40342;52.998;5.862;2022-10-31T11:32:17;20.90;;;15.52;;
54430;SDS011;40342;52.998;5.862;2022-10-31T11:37:18;18.35;;;15.13;;
54430;SDS011;40342;52.998;5.862;2022-10-31T11:39:49;20.27;;;15.98;;
54430;SDS011;40342;52.998;5.862;2022-10-31T11:42:20;21.83;;;15.55;;
54430;SDS011;40342;52.998;5.862;2022-10-31T11:44:48;19.92;;;14.60;;
54430;SDS011;40342;52.998;5.862;2022-10-31T11:47:16;22.25;;;14.88;;
54430;SDS011;40342;52.998;5.862;2022-10-31T11:49:45;21.38;;;15.13;;
54430;SDS011;40342;52.998;5.862;2022-10-31T11:52:15;19.38;;;14.13;;
54430;SDS011;40342;52.998;5.862;2022-10-31T11:57:46;18.90;;;14.48;;
54430;SDS011;40342;52.998;5.862;2022-10-31T12:00:23;16.55;;;13.40;;
54430;SDS011;40342;52.998;5.862;2022-10-31T12:02:51;17.95;;;13.35;;
54430;SDS011;40342;52.998;5.862;2022-10-31T12:05:54;15.85;;;11.90;;
54430;SDS011;40342;52.998;5.862;2022-10-31T12:08:31;14.70;;;11.18;;
54430;SDS011;40342;52.998;5.862;2022-10-31T12:11:08;12.98;;;8.73;;
54430;SDS011;40342;52.998;5.862;2022-10-31T12:17:08;13.32;;;9.10;;
54430;SDS011;40342;52.998;5.862;2022-10-31T12:19:44;13.95;;;9.48;;
54430;SDS011;40342;52.998;5.862;2022-10-31T12:25:13;9.25;;;7.57;;
54430;SDS011;40342;52.998;5.862;2022-10-31T12:38:37;9.60;;;7.30;;
54430;SDS011;40342;52.998;5.862;2022-10-31T12:55:30;11.07;;;6.72;;
54430;SDS011;40342;52.998;5.862;2022-10-31T12:58:01;12.15;;;7.03;;
54430;SDS011;40342;52.998;5.862;2022-10-31T13:00:34;12.10;;;6.68;;
54430;SDS011;40342;52.998;5.862;2022-10-31T13:03:22;9.32;;;6.38;;
54430;SDS011;40342;52.998;5.862;2022-10-31T13:05:52;10.20;;;6.57;;
54430;SDS011;40342;52.998;5.862;2022-10-31T13:08:22;13.68;;;7.28;;
54430;SDS011;40342;52.998;5.862;2022-10-31T13:16:48;9.73;;;6.57;;
54430;SDS011;40342;52.998;5.862;2022-10-31T13:19:18;12.05;;;6.45;;
54430;SDS011;40342;52.998;5.862;2022-10-31T13:22:08;10.27;;;5.93;;
54430;SDS011;40342;52.998;5.862;2022-10-31T13:27:18;9.98;;;6.30;;
54430;SDS011;40342;52.998;5.862;2022-10-31T13:32:26;10.57;;;6.65;;
54430;SDS011;40342;52.998;5.862;2022-10-31T13:35:01;10.82;;;6.90;;
54430;SDS011;40342;52.998;5.862;2022-10-31T13:37:37;9.75;;;6.65;;
54430;SDS011;40342;52.998;5.862;2022-10-31T13:43:02;10.45;;;7.03;;
54430;SDS011;40342;52.998;5.862;2022-10-31T13:45:35;10.35;;;7.60;;
54430;SDS011;40342;52.998;5.862;2022-10-31T13:48:17;11.82;;;6.70;;
54430;SDS011;40342;52.998;5.862;2022-10-31T13:56:47;9.15;;;7.32;;
54430;SDS011;40342;52.998;5.862;2022-10-31T13:59:21;10.32;;;7.05;;
54430;SDS011;40342;52.998;5.862;2022-10-31T14:01:53;11.43;;;7.63;;
54430;SDS011;40342;52.998;5.862;2022-10-31T14:04:22;10.60;;;7.47;;
54430;SDS011;40342;52.998;5.862;2022-10-31T14:09:32;10.38;;;6.97;;
54430;SDS011;40342;52.998;5.862;2022-10-31T14:12:02;9.45;;;7.30;;
54430;SDS011;40342;52.998;5.862;2022-10-31T14:14:48;11.60;;;6.78;;
54430;SDS011;40342;52.998;5.862;2022-10-31T14:17:19;10.88;;;6.95;;
54430;SDS011;40342;52.998;5.862;2022-10-31T14:20:00;10.05;;;7.05;;
54430;SDS011;40342;52.998;5.862;2022-10-31T14:22:35;9.45;;;6.38;;
54430;SDS011;40342;52.998;5.862;2022-10-31T14:27:51;9.20;;;5.95;;
54430;SDS011;40342;52.998;5.862;2022-10-31T14:30:19;7.32;;;5.65;;
54430;SDS011;40342;52.998;5.862;2022-10-31T14:36:04;11.45;;;6.47;;
54430;SDS011;40342;52.998;5.862;2022-10-31T14:38:39;8.73;;;5.38;;
54430;SDS011;40342;52.998;5.862;2022-10-31T14:41:34;10.60;;;5.60;;
54430;SDS011;40342;52.998;5.862;2022-10-31T14:47:26;11.02;;;6.25;;
54430;SDS011;40342;52.998;5.862;2022-10-31T14:50:07;11.07;;;5.55;;
54430;SDS011;40342;52.998;5.862;2022-10-31T14:52:46;7.70;;;5.03;;
54430;SDS011;40342;52.998;5.862;2022-10-31T14:55:15;9.60;;;6.05;;
54430;SDS011;40342;52.998;5.862;2022-10-31T14:57:48;10.00;;;5.68;;
54430;SDS011;40342;52.998;5.862;2022-10-31T15:00:18;7.57;;;5.15;;
54430;SDS011;40342;52.998;5.862;2022-10-31T15:05:33;8.82;;;5.85;;
54430;SDS011;40342;52.998;5.862;2022-10-31T15:08:12;9.57;;;5.88;;
54430;SDS011;40342;52.998;5.862;2022-10-31T15:10:50;12.00;;;6.00;;
54430;SDS011;40342;52.998;5.862;2022-10-31T15:13:20;8.75;;;5.40;;
54430;SDS011;40342;52.998;5.862;2022-10-31T15:15:47;10.38;;;5.95;;
54430;SDS011;40342;52.998;5.862;2022-10-31T15:18:19;10.80;;;5.75;;
54430;SDS011;40342;52.998;5.862;2022-10-31T15:20:48;9.05;;;5.60;;
54430;SDS011;40342;52.998;5.862;2022-10-31T15:23:16;7.88;;;5.15;;
54430;SDS011;40342;52.998;5.862;2022-10-31T15:25:47;7.28;;;5.03;;
54430;SDS011;40342;52.998;5.862;2022-10-31T15:28:14;9.68;;;4.85;;
54430;SDS011;40342;52.998;5.862;2022-10-31T15:30:49;10.68;;;5.57;;
54430;SDS011;40342;52.998;5.862;2022-10-31T15:33:24;8.73;;;5.68;;
54430;SDS011;40342;52.998;5.862;2022-10-31T15:35:57;12.38;;;5.82;;
54430;SDS011;40342;52.998;5.862;2022-10-31T15:38:24;8.05;;;4.93;;
54430;SDS011;40342;52.998;5.862;2022-10-31T15:40:55;10.77;;;5.53;;
54430;SDS011;40342;52.998;5.862;2022-10-31T15:43:44;10.10;;;5.35;;
54430;SDS011;40342;52.998;5.862;2022-10-31T15:46:10;8.38;;;5.07;;
54430;SDS011;40342;52.998;5.862;2022-10-31T15:48:36;7.95;;;5.43;;
54430;SDS011;40342;52.998;5.862;2022-10-31T15:51:03;8.25;;;5.55;;
54430;SDS011;40342;52.998;5.862;2022-10-31T15:53:37;8.38;;;5.38;;
54430;SDS011;40342;52.998;5.862;2022-10-31T15:56:11;8.23;;;5.35;;
54430;SDS011;40342;52.998;5.862;2022-10-31T15:58:41;9.27;;;5.30;;
54430;SDS011;40342;52.998;5.862;2022-10-31T16:01:20;11.05;;;5.05;;
54430;SDS011;40342;52.998;5.862;2022-10-31T16:03:57;10.38;;;4.93;;
54430;SDS011;40342;52.998;5.862;2022-10-31T16:06:25;8.95;;;5.05;;
54430;SDS011;40342;52.998;5.862;2022-10-31T16:08:51;12.80;;;5.25;;
54430;SDS011;40342;52.998;5.862;2022-10-31T16:11:21;8.77;;;4.88;;
54430;SDS011;40342;52.998;5.862;2022-10-31T16:14:00;12.20;;;5.18;;
54430;SDS011;40342;52.998;5.862;2022-10-31T16:16:42;9.10;;;4.80;;
54430;SDS011;40342;52.998;5.862;2022-10-31T16:19:17;8.95;;;5.90;;
54430;SDS011;40342;52.998;5.862;2022-10-31T16:21:48;10.95;;;6.53;;
54430;SDS011;40342;52.998;5.862;2022-10-31T16:24:19;10.10;;;6.00;;
54430;SDS011;40342;52.998;5.862;2022-10-31T16:26:47;8.73;;;6.22;;
54430;SDS011;40342;52.998;5.862;2022-10-31T16:32:04;12.38;;;6.82;;
54430;SDS011;40342;52.998;5.862;2022-10-31T16:34:29;12.88;;;6.45;;
54430;SDS011;40342;52.998;5.862;2022-10-31T16:36:55;11.35;;;6.07;;
54430;SDS011;40342;52.998;5.862;2022-10-31T16:39:21;9.02;;;6.60;;
54430;SDS011;40342;52.998;5.862;2022-10-31T16:41:48;8.82;;;6.50;;
54430;SDS011;40342;52.998;5.862;2022-10-31T16:44:23;10.05;;;6.65;;
54430;SDS011;40342;52.998;5.862;2022-10-31T16:49:31;8.10;;;6.28;;